sensor_id;sensor_type;location;lat;lon;timestamp;temperature;humidity
360;DHT22;168;48.872;9.226;2022-07-10T00:01:13;17.90;91.20
360;DHT22;168;48.872;9.226;2022-07-10T00:03:41;17.90;91.20
360;DHT22;168;48.872;9.226;2022-07-10T00:06:10;17.90;91.20
360;DHT22;168;48.872;9.226;2022-07-10T00:08:38;17.90;91.10
360;DHT22;168;48.872;9.226;2022-07-10T00:11:05;17.90;91.20
360;DHT22;168;48.872;9.226;2022-07-10T00:13:33;17.90;91.20
360;DHT22;168;48.872;9.226;2022-07-10T00:16:00;17.90;91.30
360;DHT22;168;48.872;9.226;2022-07-10T00:18:29;17.90;91.40
360;DHT22;168;48.872;9.226;2022-07-10T00:20:57;17.90;91.30
360;DHT22;168;48.872;9.226;2022-07-10T00:23:25;17.90;91.30
360;DHT22;168;48.872;9.226;2022-07-10T00:25:52;17.90;91.40
360;DHT22;168;48.872;9.226;2022-07-10T00:28:20;17.90;91.30
360;DHT22;168;48.872;9.226;2022-07-10T00:30:49;17.90;91.50
360;DHT22;168;48.872;9.226;2022-07-10T00:33:16;17.80;91.30
360;DHT22;168;48.872;9.226;2022-07-10T00:35:45;17.70;91.10
360;DHT22;168;48.872;9.226;2022-07-10T00:38:12;17.70;91.20
360;DHT22;168;48.872;9.226;2022-07-10T00:40:40;17.70;91.20
360;DHT22;168;48.872;9.226;2022-07-10T00:43:08;17.60;91.20
360;DHT22;168;48.872;9.226;2022-07-10T00:45:36;17.60;91.30
360;DHT22;168;48.872;9.226;2022-07-10T00:48:04;17.50;91.10
360;DHT22;168;48.872;9.226;2022-07-10T00:50:32;17.50;91.20
360;DHT22;168;48.872;9.226;2022-07-10T00:53:02;17.50;91.10
360;DHT22;168;48.872;9.226;2022-07-10T00:55:30;17.40;91.00
360;DHT22;168;48.872;9.226;2022-07-10T00:57:58;17.40;90.90
360;DHT22;168;48.872;9.226;2022-07-10T01:00:26;17.40;91.00
360;DHT22;168;48.872;9.226;2022-07-10T01:02:54;17.30;91.00
360;DHT22;168;48.872;9.226;2022-07-10T01:05:22;17.30;91.00
360;DHT22;168;48.872;9.226;2022-07-10T01:07:50;17.30;90.90
360;DHT22;168;48.872;9.226;2022-07-10T01:10:19;17.30;90.90
360;DHT22;168;48.872;9.226;2022-07-10T01:12:46;17.30;91.10
360;DHT22;168;48.872;9.226;2022-07-10T01:15:14;17.30;91.10
360;DHT22;168;48.872;9.226;2022-07-10T01:17:42;17.30;91.30
360;DHT22;168;48.872;9.226;2022-07-10T01:20:10;17.40;91.40
360;DHT22;168;48.872;9.226;2022-07-10T01:22:39;17.30;91.30
360;DHT22;168;48.872;9.226;2022-07-10T01:25:08;17.40;91.50
360;DHT22;168;48.872;9.226;2022-07-10T01:27:37;17.50;91.70
360;DHT22;168;48.872;9.226;2022-07-10T01:30:05;17.50;91.70
360;DHT22;168;48.872;9.226;2022-07-10T01:32:37;17.50;91.60
360;DHT22;168;48.872;9.226;2022-07-10T01:35:06;17.40;91.60
360;DHT22;168;48.872;9.226;2022-07-10T01:37:34;17.50;91.70
360;DHT22;168;48.872;9.226;2022-07-10T01:40:04;17.40;91.70
360;DHT22;168;48.872;9.226;2022-07-10T01:42:32;17.40;91.70
360;DHT22;168;48.872;9.226;2022-07-10T01:45:00;17.40;91.60
360;DHT22;168;48.872;9.226;2022-07-10T01:47:27;17.30;91.50
360;DHT22;168;48.872;9.226;2022-07-10T01:49:54;17.20;91.50
360;DHT22;168;48.872;9.226;2022-07-10T01:52:22;17.20;91.40
360;DHT22;168;48.872;9.226;2022-07-10T01:54:50;17.20;91.40
360;DHT22;168;48.872;9.226;2022-07-10T01:57:19;17.10;91.20
360;DHT22;168;48.872;9.226;2022-07-10T01:59:47;17.00;91.20
360;DHT22;168;48.872;9.226;2022-07-10T02:02:15;17.00;91.20
360;DHT22;168;48.872;9.226;2022-07-10T02:04:42;17.00;91.30
360;DHT22;168;48.872;9.226;2022-07-10T02:07:10;16.90;91.30
360;DHT22;168;48.872;9.226;2022-07-10T02:09:39;16.80;91.30
360;DHT22;168;48.872;9.226;2022-07-10T02:12:08;16.80;91.30
360;DHT22;168;48.872;9.226;2022-07-10T02:14:37;16.90;91.30
360;DHT22;168;48.872;9.226;2022-07-10T02:17:08;16.90;91.40
360;DHT22;168;48.872;9.226;2022-07-10T02:19:42;17.00;91.80
360;DHT22;168;48.872;9.226;2022-07-10T02:22:26;17.00;92.00
360;DHT22;168;48.872;9.226;2022-07-10T02:25:01;17.00;91.80
360;DHT22;168;48.872;9.226;2022-07-10T02:27:51;17.10;92.00
360;DHT22;168;48.872;9.226;2022-07-10T02:30:23;17.00;91.80
360;DHT22;168;48.872;9.226;2022-07-10T02:32:56;17.10;91.80
360;DHT22;168;48.872;9.226;2022-07-10T02:35:25;17.00;91.80
360;DHT22;168;48.872;9.226;2022-07-10T02:38:02;17.00;91.80
360;DHT22;168;48.872;9.226;2022-07-10T02:40:38;17.00;91.80
360;DHT22;168;48.872;9.226;2022-07-10T02:43:26;17.00;91.70
360;DHT22;168;48.872;9.226;2022-07-10T02:45:59;16.90;91.70
360;DHT22;168;48.872;9.226;2022-07-10T02:48:28;16.90;91.70
360;DHT22;168;48.872;9.226;2022-07-10T02:50:56;16.90;91.80
360;DHT22;168;48.872;9.226;2022-07-10T02:53:23;16.80;91.50
360;DHT22;168;48.872;9.226;2022-07-10T02:55:51;16.90;91.60
360;DHT22;168;48.872;9.226;2022-07-10T02:58:25;16.90;91.50
360;DHT22;168;48.872;9.226;2022-07-10T03:01:02;16.90;91.50
360;DHT22;168;48.872;9.226;2022-07-10T03:03:37;16.90;91.50
360;DHT22;168;48.872;9.226;2022-07-10T03:06:18;16.80;91.50
360;DHT22;168;48.872;9.226;2022-07-10T03:09:01;16.80;91.60
360;DHT22;168;48.872;9.226;2022-07-10T03:11:40;16.70;91.50
360;DHT22;168;48.872;9.226;2022-07-10T03:14:35;16.70;91.40
360;DHT22;168;48.872;9.226;2022-07-10T03:17:11;16.70;91.60
360;DHT22;168;48.872;9.226;2022-07-10T03:19:39;16.70;91.60
360;DHT22;168;48.872;9.226;2022-07-10T03:22:19;16.60;91.50
360;DHT22;168;48.872;9.226;2022-07-10T03:25:04;16.70;91.60
360;DHT22;168;48.872;9.226;2022-07-10T03:27:44;16.60;91.60
360;DHT22;168;48.872;9.226;2022-07-10T03:30:17;16.60;91.60
360;DHT22;168;48.872;9.226;2022-07-10T03:32:50;16.60;91.60
360;DHT22;168;48.872;9.226;2022-07-10T03:35:20;16.60;91.60
360;DHT22;168;48.872;9.226;2022-07-10T03:37:52;16.60;91.60
360;DHT22;168;48.872;9.226;2022-07-10T03:40:22;16.60;91.60
360;DHT22;168;48.872;9.226;2022-07-10T03:42:57;16.60;91.50
360;DHT22;168;48.872;9.226;2022-07-10T03:45:43;16.60;91.70
360;DHT22;168;48.872;9.226;2022-07-10T03:48:17;16.70;91.80
360;DHT22;168;48.872;9.226;2022-07-10T03:50:54;16.80;91.70
360;DHT22;168;48.872;9.226;2022-07-10T03:53:32;16.90;91.90
360;DHT22;168;48.872;9.226;2022-07-10T03:56:10;16.90;91.80
360;DHT22;168;48.872;9.226;2022-07-10T03:59:00;16.90;91.90
360;DHT22;168;48.872;9.226;2022-07-10T04:01:47;16.90;92.00
360;DHT22;168;48.872;9.226;2022-07-10T04:04:36;16.80;91.90
360;DHT22;168;48.872;9.226;2022-07-10T04:07:15;16.80;91.90
360;DHT22;168;48.872;9.226;2022-07-10T04:09:53;16.80;91.90
360;DHT22;168;48.872;9.226;2022-07-10T04:12:36;16.80;92.00
360;DHT22;168;48.872;9.226;2022-07-10T04:15:04;16.70;91.90
360;DHT22;168;48.872;9.226;2022-07-10T04:17:36;16.70;91.90
360;DHT22;168;48.872;9.226;2022-07-10T04:20:07;16.60;91.80
360;DHT22;168;48.872;9.226;2022-07-10T04:22:47;16.60;91.70
360;DHT22;168;48.872;9.226;2022-07-10T04:25:23;16.60;91.90
360;DHT22;168;48.872;9.226;2022-07-10T04:27:54;16.70;91.90
360;DHT22;168;48.872;9.226;2022-07-10T04:30:29;16.70;92.00
360;DHT22;168;48.872;9.226;2022-07-10T04:33:01;16.70;91.90
360;DHT22;168;48.872;9.226;2022-07-10T04:35:36;16.70;91.90
360;DHT22;168;48.872;9.226;2022-07-10T04:38:14;16.60;91.80
360;DHT22;168;48.872;9.226;2022-07-10T04:41:00;16.50;91.70
360;DHT22;168;48.872;9.226;2022-07-10T04:43:35;16.60;91.90
360;DHT22;168;48.872;9.226;2022-07-10T04:46:04;16.60;91.90
360;DHT22;168;48.872;9.226;2022-07-10T04:48:35;16.60;91.90
360;DHT22;168;48.872;9.226;2022-07-10T04:54:17;16.60;92.00
360;DHT22;168;48.872;9.226;2022-07-10T04:56:46;16.60;92.00
360;DHT22;168;48.872;9.226;2022-07-10T04:59:23;16.50;91.90
360;DHT22;168;48.872;9.226;2022-07-10T05:01:57;16.50;92.00
360;DHT22;168;48.872;9.226;2022-07-10T05:04:35;16.50;91.90
360;DHT22;168;48.872;9.226;2022-07-10T05:07:03;16.50;91.90
360;DHT22;168;48.872;9.226;2022-07-10T05:09:35;16.50;91.90
360;DHT22;168;48.872;9.226;2022-07-10T05:12:13;16.60;92.20
360;DHT22;168;48.872;9.226;2022-07-10T05:14:51;16.50;92.10
360;DHT22;168;48.872;9.226;2022-07-10T05:17:19;16.50;92.20
360;DHT22;168;48.872;9.226;2022-07-10T05:19:47;16.60;92.60
360;DHT22;168;48.872;9.226;2022-07-10T05:22:20;16.70;92.80
360;DHT22;168;48.872;9.226;2022-07-10T05:24:57;16.70;92.50
360;DHT22;168;48.872;9.226;2022-07-10T05:27:25;16.70;92.60
360;DHT22;168;48.872;9.226;2022-07-10T05:29:53;16.80;92.60
360;DHT22;168;48.872;9.226;2022-07-10T05:32:21;16.80;92.50
360;DHT22;168;48.872;9.226;2022-07-10T05:34:51;16.90;92.60
360;DHT22;168;48.872;9.226;2022-07-10T05:37:18;16.90;92.70
360;DHT22;168;48.872;9.226;2022-07-10T05:39:48;16.80;92.50
360;DHT22;168;48.872;9.226;2022-07-10T05:42:16;16.80;92.50
360;DHT22;168;48.872;9.226;2022-07-10T05:44:44;16.80;92.50
360;DHT22;168;48.872;9.226;2022-07-10T05:47:11;16.80;92.60
360;DHT22;168;48.872;9.226;2022-07-10T05:49:39;16.90;92.60
360;DHT22;168;48.872;9.226;2022-07-10T05:52:06;16.90;92.50
360;DHT22;168;48.872;9.226;2022-07-10T05:54:34;16.90;92.60
360;DHT22;168;48.872;9.226;2022-07-10T05:57:01;17.00;92.50
360;DHT22;168;48.872;9.226;2022-07-10T05:59:33;17.00;92.30
360;DHT22;168;48.872;9.226;2022-07-10T06:02:01;17.10;92.20
360;DHT22;168;48.872;9.226;2022-07-10T06:04:28;17.20;91.90
360;DHT22;168;48.872;9.226;2022-07-10T06:06:56;17.30;92.00
360;DHT22;168;48.872;9.226;2022-07-10T06:09:24;17.40;92.10
360;DHT22;168;48.872;9.226;2022-07-10T06:11:51;17.60;92.10
360;DHT22;168;48.872;9.226;2022-07-10T06:14:19;17.70;91.60
360;DHT22;168;48.872;9.226;2022-07-10T06:16:50;17.70;91.60
360;DHT22;168;48.872;9.226;2022-07-10T06:19:19;17.70;91.70
360;DHT22;168;48.872;9.226;2022-07-10T06:21:47;17.60;91.60
360;DHT22;168;48.872;9.226;2022-07-10T06:24:34;17.70;91.30
360;DHT22;168;48.872;9.226;2022-07-10T06:27:02;17.70;91.30
360;DHT22;168;48.872;9.226;2022-07-10T06:29:30;17.70;91.30
360;DHT22;168;48.872;9.226;2022-07-10T06:31:59;17.60;90.80
360;DHT22;168;48.872;9.226;2022-07-10T06:34:27;17.60;90.90
360;DHT22;168;48.872;9.226;2022-07-10T06:36:54;17.60;91.00
360;DHT22;168;48.872;9.226;2022-07-10T06:39:22;17.50;91.20
360;DHT22;168;48.872;9.226;2022-07-10T06:41:49;17.40;91.10
360;DHT22;168;48.872;9.226;2022-07-10T06:44:16;17.40;90.80
360;DHT22;168;48.872;9.226;2022-07-10T06:46:44;17.40;90.70
360;DHT22;168;48.872;9.226;2022-07-10T06:49:33;17.30;90.70
360;DHT22;168;48.872;9.226;2022-07-10T06:52:00;17.30;90.70
360;DHT22;168;48.872;9.226;2022-07-10T06:54:27;17.40;90.50
360;DHT22;168;48.872;9.226;2022-07-10T06:56:55;17.30;90.60
360;DHT22;168;48.872;9.226;2022-07-10T06:59:22;17.30;90.30
360;DHT22;168;48.872;9.226;2022-07-10T07:01:50;17.20;90.20
360;DHT22;168;48.872;9.226;2022-07-10T07:04:18;17.20;89.90
360;DHT22;168;48.872;9.226;2022-07-10T07:06:47;17.00;90.00
360;DHT22;168;48.872;9.226;2022-07-10T07:09:15;17.00;90.50
360;DHT22;168;48.872;9.226;2022-07-10T07:11:43;17.10;90.60
360;DHT22;168;48.872;9.226;2022-07-10T07:14:13;17.30;90.30
360;DHT22;168;48.872;9.226;2022-07-10T07:16:41;17.50;90.10
360;DHT22;168;48.872;9.226;2022-07-10T07:19:11;17.60;89.30
360;DHT22;168;48.872;9.226;2022-07-10T07:21:43;17.60;88.90
360;DHT22;168;48.872;9.226;2022-07-10T07:24:30;17.70;88.70
360;DHT22;168;48.872;9.226;2022-07-10T07:26:58;17.60;88.90
360;DHT22;168;48.872;9.226;2022-07-10T07:29:25;17.60;88.90
360;DHT22;168;48.872;9.226;2022-07-10T07:31:53;17.50;88.80
360;DHT22;168;48.872;9.226;2022-07-10T07:34:21;17.50;88.80
360;DHT22;168;48.872;9.226;2022-07-10T07:36:49;17.20;88.80
360;DHT22;168;48.872;9.226;2022-07-10T07:39:16;17.20;88.70
360;DHT22;168;48.872;9.226;2022-07-10T07:41:45;17.10;87.20
360;DHT22;168;48.872;9.226;2022-07-10T07:44:13;17.20;86.80
360;DHT22;168;48.872;9.226;2022-07-10T07:46:43;17.30;86.30
360;DHT22;168;48.872;9.226;2022-07-10T07:49:11;17.40;85.60
360;DHT22;168;48.872;9.226;2022-07-10T07:51:38;17.70;84.80
360;DHT22;168;48.872;9.226;2022-07-10T07:54:07;17.80;84.50
360;DHT22;168;48.872;9.226;2022-07-10T07:56:35;17.90;83.70
360;DHT22;168;48.872;9.226;2022-07-10T07:59:04;18.00;83.30
360;DHT22;168;48.872;9.226;2022-07-10T08:01:32;18.00;83.50
360;DHT22;168;48.872;9.226;2022-07-10T08:04:00;18.10;82.40
360;DHT22;168;48.872;9.226;2022-07-10T08:06:28;18.20;82.20
360;DHT22;168;48.872;9.226;2022-07-10T08:08:56;18.20;81.80
360;DHT22;168;48.872;9.226;2022-07-10T08:11:25;18.30;81.40
360;DHT22;168;48.872;9.226;2022-07-10T08:13:53;18.30;82.20
360;DHT22;168;48.872;9.226;2022-07-10T08:16:21;18.50;81.90
360;DHT22;168;48.872;9.226;2022-07-10T08:18:49;18.60;81.00
360;DHT22;168;48.872;9.226;2022-07-10T08:21:18;18.50;81.50
360;DHT22;168;48.872;9.226;2022-07-10T08:23:48;18.30;80.90
360;DHT22;168;48.872;9.226;2022-07-10T08:26:15;18.20;81.10
360;DHT22;168;48.872;9.226;2022-07-10T08:28:43;18.30;81.70
360;DHT22;168;48.872;9.226;2022-07-10T08:31:11;18.50;80.20
360;DHT22;168;48.872;9.226;2022-07-10T08:33:40;18.70;80.70
360;DHT22;168;48.872;9.226;2022-07-10T08:36:09;18.80;80.50
360;DHT22;168;48.872;9.226;2022-07-10T08:38:36;18.90;80.20
360;DHT22;168;48.872;9.226;2022-07-10T08:41:05;19.00;78.80
360;DHT22;168;48.872;9.226;2022-07-10T08:43:33;18.90;77.80
360;DHT22;168;48.872;9.226;2022-07-10T08:46:01;18.90;77.60
360;DHT22;168;48.872;9.226;2022-07-10T08:48:32;19.00;78.00
360;DHT22;168;48.872;9.226;2022-07-10T08:51:05;19.10;77.00
360;DHT22;168;48.872;9.226;2022-07-10T08:53:34;19.40;77.10
360;DHT22;168;48.872;9.226;2022-07-10T08:56:04;19.50;75.20
360;DHT22;168;48.872;9.226;2022-07-10T08:58:33;19.60;76.00
360;DHT22;168;48.872;9.226;2022-07-10T09:01:01;19.60;74.60
360;DHT22;168;48.872;9.226;2022-07-10T09:03:29;19.50;74.40
360;DHT22;168;48.872;9.226;2022-07-10T09:05:57;19.20;75.60
360;DHT22;168;48.872;9.226;2022-07-10T09:08:28;18.90;75.20
360;DHT22;168;48.872;9.226;2022-07-10T09:11:14;18.70;76.40
360;DHT22;168;48.872;9.226;2022-07-10T09:13:49;19.10;75.50
360;DHT22;168;48.872;9.226;2022-07-10T09:16:22;19.30;74.20
360;DHT22;168;48.872;9.226;2022-07-10T09:18:51;19.30;74.20
360;DHT22;168;48.872;9.226;2022-07-10T09:21:19;19.30;74.00
360;DHT22;168;48.872;9.226;2022-07-10T09:23:48;19.10;74.10
360;DHT22;168;48.872;9.226;2022-07-10T09:26:16;19.20;74.20
360;DHT22;168;48.872;9.226;2022-07-10T09:28:44;19.30;72.20
360;DHT22;168;48.872;9.226;2022-07-10T09:31:12;19.30;73.50
360;DHT22;168;48.872;9.226;2022-07-10T09:33:40;19.20;74.20
360;DHT22;168;48.872;9.226;2022-07-10T09:36:09;19.30;72.30
360;DHT22;168;48.872;9.226;2022-07-10T09:42:04;19.40;72.90
360;DHT22;168;48.872;9.226;2022-07-10T09:44:50;19.80;71.50
360;DHT22;168;48.872;9.226;2022-07-10T09:47:42;20.00;71.30
360;DHT22;168;48.872;9.226;2022-07-10T09:50:21;20.10;69.40
360;DHT22;168;48.872;9.226;2022-07-10T09:52:51;20.20;69.00
360;DHT22;168;48.872;9.226;2022-07-10T09:55:21;19.80;70.00
360;DHT22;168;48.872;9.226;2022-07-10T09:57:58;19.70;71.10
360;DHT22;168;48.872;9.226;2022-07-10T10:00:27;19.70;70.90
360;DHT22;168;48.872;9.226;2022-07-10T10:02:56;19.70;70.10
360;DHT22;168;48.872;9.226;2022-07-10T10:05:34;19.80;70.70
360;DHT22;168;48.872;9.226;2022-07-10T10:08:09;19.90;69.80
360;DHT22;168;48.872;9.226;2022-07-10T10:10:42;20.20;69.40
360;DHT22;168;48.872;9.226;2022-07-10T10:13:15;20.50;68.60
360;DHT22;168;48.872;9.226;2022-07-10T10:15:46;20.80;67.40
360;DHT22;168;48.872;9.226;2022-07-10T10:18:17;21.00;67.10
360;DHT22;168;48.872;9.226;2022-07-10T10:20:45;20.90;67.20
360;DHT22;168;48.872;9.226;2022-07-10T10:23:13;21.00;66.30
360;DHT22;168;48.872;9.226;2022-07-10T10:25:44;20.90;67.90
360;DHT22;168;48.872;9.226;2022-07-10T10:28:14;20.90;68.30
360;DHT22;168;48.872;9.226;2022-07-10T10:30:45;20.90;67.40
360;DHT22;168;48.872;9.226;2022-07-10T10:33:47;20.90;66.30
360;DHT22;168;48.872;9.226;2022-07-10T10:36:46;20.90;68.00
360;DHT22;168;48.872;9.226;2022-07-10T10:39:18;20.80;68.00
360;DHT22;168;48.872;9.226;2022-07-10T10:41:51;20.80;67.30
360;DHT22;168;48.872;9.226;2022-07-10T10:44:29;20.80;67.60
360;DHT22;168;48.872;9.226;2022-07-10T10:47:05;20.80;67.20
360;DHT22;168;48.872;9.226;2022-07-10T10:49:59;20.70;67.00
360;DHT22;168;48.872;9.226;2022-07-10T10:52:28;20.70;67.50
360;DHT22;168;48.872;9.226;2022-07-10T10:55:06;20.50;68.00
360;DHT22;168;48.872;9.226;2022-07-10T10:57:41;20.50;68.00
360;DHT22;168;48.872;9.226;2022-07-10T11:00:30;20.60;68.00
360;DHT22;168;48.872;9.226;2022-07-10T11:05:50;20.50;69.60
360;DHT22;168;48.872;9.226;2022-07-10T11:08:38;20.40;70.10
360;DHT22;168;48.872;9.226;2022-07-10T11:14:14;20.00;71.30
360;DHT22;168;48.872;9.226;2022-07-10T11:16:49;20.00;70.80
360;DHT22;168;48.872;9.226;2022-07-10T11:19:26;20.20;69.80
360;DHT22;168;48.872;9.226;2022-07-10T11:25:20;20.30;69.60
360;DHT22;168;48.872;9.226;2022-07-10T11:28:05;20.70;69.20
360;DHT22;168;48.872;9.226;2022-07-10T11:30:46;20.90;68.70
360;DHT22;168;48.872;9.226;2022-07-10T11:33:16;20.80;67.00
360;DHT22;168;48.872;9.226;2022-07-10T11:35:45;20.60;67.70
360;DHT22;168;48.872;9.226;2022-07-10T11:38:19;20.50;68.10
360;DHT22;168;48.872;9.226;2022-07-10T11:40:47;20.50;67.40
360;DHT22;168;48.872;9.226;2022-07-10T11:43:15;20.40;67.20
360;DHT22;168;48.872;9.226;2022-07-10T11:45:45;20.40;66.60
360;DHT22;168;48.872;9.226;2022-07-10T11:48:21;20.30;68.00
360;DHT22;168;48.872;9.226;2022-07-10T11:50:49;20.20;68.80
360;DHT22;168;48.872;9.226;2022-07-10T11:53:22;20.00;68.40
360;DHT22;168;48.872;9.226;2022-07-10T11:55:50;19.90;69.30
360;DHT22;168;48.872;9.226;2022-07-10T11:58:20;20.00;68.70
360;DHT22;168;48.872;9.226;2022-07-10T12:01:00;20.00;67.00
360;DHT22;168;48.872;9.226;2022-07-10T12:03:30;20.20;68.10
360;DHT22;168;48.872;9.226;2022-07-10T12:06:07;20.40;67.10
360;DHT22;168;48.872;9.226;2022-07-10T12:08:45;20.50;66.70
360;DHT22;168;48.872;9.226;2022-07-10T12:11:14;20.70;65.50
360;DHT22;168;48.872;9.226;2022-07-10T12:13:46;20.80;65.10
360;DHT22;168;48.872;9.226;2022-07-10T12:16:15;20.90;66.80
360;DHT22;168;48.872;9.226;2022-07-10T12:18:45;20.90;65.30
360;DHT22;168;48.872;9.226;2022-07-10T12:21:16;21.20;66.90
360;DHT22;168;48.872;9.226;2022-07-10T12:23:45;21.30;66.90
360;DHT22;168;48.872;9.226;2022-07-10T12:26:15;21.30;66.50
360;DHT22;168;48.872;9.226;2022-07-10T12:28:54;21.20;66.90
360;DHT22;168;48.872;9.226;2022-07-10T12:31:26;21.00;66.90
360;DHT22;168;48.872;9.226;2022-07-10T12:33:58;21.10;65.00
360;DHT22;168;48.872;9.226;2022-07-10T12:36:47;21.10;65.10
360;DHT22;168;48.872;9.226;2022-07-10T12:39:17;20.90;65.60
360;DHT22;168;48.872;9.226;2022-07-10T12:41:56;20.90;66.50
360;DHT22;168;48.872;9.226;2022-07-10T12:44:34;20.90;65.90
360;DHT22;168;48.872;9.226;2022-07-10T12:47:03;20.90;65.00
360;DHT22;168;48.872;9.226;2022-07-10T12:49:55;20.90;64.80
360;DHT22;168;48.872;9.226;2022-07-10T12:52:25;20.80;65.30
360;DHT22;168;48.872;9.226;2022-07-10T12:55:09;20.80;64.40
360;DHT22;168;48.872;9.226;2022-07-10T12:57:50;20.80;63.60
360;DHT22;168;48.872;9.226;2022-07-10T13:00:19;20.90;63.40
360;DHT22;168;48.872;9.226;2022-07-10T13:02:47;21.00;64.40
360;DHT22;168;48.872;9.226;2022-07-10T13:05:28;21.10;62.80
360;DHT22;168;48.872;9.226;2022-07-10T13:08:09;21.20;63.50
360;DHT22;168;48.872;9.226;2022-07-10T13:10:39;21.20;62.30
360;DHT22;168;48.872;9.226;2022-07-10T13:13:07;21.40;61.80
360;DHT22;168;48.872;9.226;2022-07-10T13:15:35;21.70;60.50
360;DHT22;168;48.872;9.226;2022-07-10T13:18:06;21.90;61.20
360;DHT22;168;48.872;9.226;2022-07-10T13:20:35;22.00;61.60
360;DHT22;168;48.872;9.226;2022-07-10T13:23:03;21.60;62.40
360;DHT22;168;48.872;9.226;2022-07-10T13:25:31;21.10;63.60
360;DHT22;168;48.872;9.226;2022-07-10T13:28:00;21.10;63.80
360;DHT22;168;48.872;9.226;2022-07-10T13:30:27;21.30;64.10
360;DHT22;168;48.872;9.226;2022-07-10T13:32:55;21.50;63.20
360;DHT22;168;48.872;9.226;2022-07-10T13:35:23;21.70;62.00
360;DHT22;168;48.872;9.226;2022-07-10T13:37:52;21.80;61.80
360;DHT22;168;48.872;9.226;2022-07-10T13:40:20;22.10;61.90
360;DHT22;168;48.872;9.226;2022-07-10T13:42:47;22.30;60.70
360;DHT22;168;48.872;9.226;2022-07-10T13:45:15;22.40;59.80
360;DHT22;168;48.872;9.226;2022-07-10T13:47:43;22.40;59.70
360;DHT22;168;48.872;9.226;2022-07-10T13:50:11;22.20;60.00
360;DHT22;168;48.872;9.226;2022-07-10T13:52:38;22.10;59.80
360;DHT22;168;48.872;9.226;2022-07-10T13:55:08;22.00;60.10
360;DHT22;168;48.872;9.226;2022-07-10T13:57:35;21.90;59.50
360;DHT22;168;48.872;9.226;2022-07-10T14:00:03;21.90;59.10
360;DHT22;168;48.872;9.226;2022-07-10T14:02:31;22.00;59.70
360;DHT22;168;48.872;9.226;2022-07-10T14:04:59;22.10;59.40
360;DHT22;168;48.872;9.226;2022-07-10T14:07:27;21.70;59.80
360;DHT22;168;48.872;9.226;2022-07-10T14:09:55;21.70;60.90
360;DHT22;168;48.872;9.226;2022-07-10T14:12:25;21.90;60.80
360;DHT22;168;48.872;9.226;2022-07-10T14:14:53;22.00;59.90
360;DHT22;168;48.872;9.226;2022-07-10T14:17:20;22.20;61.00
360;DHT22;168;48.872;9.226;2022-07-10T14:19:48;22.30;59.30
360;DHT22;168;48.872;9.226;2022-07-10T14:22:15;22.40;59.20
360;DHT22;168;48.872;9.226;2022-07-10T14:24:43;22.60;58.40
360;DHT22;168;48.872;9.226;2022-07-10T14:27:10;22.80;57.40
360;DHT22;168;48.872;9.226;2022-07-10T14:29:40;22.90;57.30
360;DHT22;168;48.872;9.226;2022-07-10T14:32:08;22.90;57.20
360;DHT22;168;48.872;9.226;2022-07-10T14:34:35;22.60;58.00
360;DHT22;168;48.872;9.226;2022-07-10T14:37:03;22.50;58.50
360;DHT22;168;48.872;9.226;2022-07-10T14:39:31;22.70;57.80
360;DHT22;168;48.872;9.226;2022-07-10T14:41:59;22.70;56.90
360;DHT22;168;48.872;9.226;2022-07-10T14:44:27;22.90;57.50
360;DHT22;168;48.872;9.226;2022-07-10T14:46:56;23.00;56.20
360;DHT22;168;48.872;9.226;2022-07-10T14:49:23;23.00;56.00
360;DHT22;168;48.872;9.226;2022-07-10T14:51:51;22.90;55.50
360;DHT22;168;48.872;9.226;2022-07-10T14:54:18;23.00;56.10
360;DHT22;168;48.872;9.226;2022-07-10T14:56:46;23.20;55.90
360;DHT22;168;48.872;9.226;2022-07-10T14:59:13;23.40;55.90
360;DHT22;168;48.872;9.226;2022-07-10T15:01:41;23.80;55.50
360;DHT22;168;48.872;9.226;2022-07-10T15:04:10;24.20;55.30
360;DHT22;168;48.872;9.226;2022-07-10T15:06:37;24.50;54.80
360;DHT22;168;48.872;9.226;2022-07-10T15:09:05;24.40;53.70
360;DHT22;168;48.872;9.226;2022-07-10T15:11:32;24.20;53.80
360;DHT22;168;48.872;9.226;2022-07-10T15:14:00;24.20;55.00
360;DHT22;168;48.872;9.226;2022-07-10T15:16:30;24.30;53.70
360;DHT22;168;48.872;9.226;2022-07-10T15:18:58;24.00;53.80
360;DHT22;168;48.872;9.226;2022-07-10T15:21:27;23.70;54.00
360;DHT22;168;48.872;9.226;2022-07-10T15:23:55;23.80;54.60
360;DHT22;168;48.872;9.226;2022-07-10T15:26:22;23.90;54.00
360;DHT22;168;48.872;9.226;2022-07-10T15:28:49;23.90;53.20
360;DHT22;168;48.872;9.226;2022-07-10T15:31:17;23.90;54.00
360;DHT22;168;48.872;9.226;2022-07-10T15:33:44;23.80;53.80
360;DHT22;168;48.872;9.226;2022-07-10T15:36:12;23.80;54.00
360;DHT22;168;48.872;9.226;2022-07-10T15:38:41;23.70;54.20
360;DHT22;168;48.872;9.226;2022-07-10T15:41:09;23.50;54.00
360;DHT22;168;48.872;9.226;2022-07-10T15:43:36;23.50;54.30
360;DHT22;168;48.872;9.226;2022-07-10T15:46:05;23.50;54.50
360;DHT22;168;48.872;9.226;2022-07-10T15:48:33;23.70;54.20
360;DHT22;168;48.872;9.226;2022-07-10T15:51:03;23.90;54.30
360;DHT22;168;48.872;9.226;2022-07-10T15:53:30;24.10;53.40
360;DHT22;168;48.872;9.226;2022-07-10T15:55:59;24.30;53.70
360;DHT22;168;48.872;9.226;2022-07-10T15:58:28;24.70;53.30
360;DHT22;168;48.872;9.226;2022-07-10T16:00:55;25.20;51.90
360;DHT22;168;48.872;9.226;2022-07-10T16:03:23;25.20;52.60
360;DHT22;168;48.872;9.226;2022-07-10T16:05:50;25.60;51.60
360;DHT22;168;48.872;9.226;2022-07-10T16:08:18;25.90;50.60
360;DHT22;168;48.872;9.226;2022-07-10T16:10:47;25.10;51.50
360;DHT22;168;48.872;9.226;2022-07-10T16:13:16;24.90;52.70
360;DHT22;168;48.872;9.226;2022-07-10T16:15:43;25.10;51.80
360;DHT22;168;48.872;9.226;2022-07-10T16:18:11;25.20;51.90
360;DHT22;168;48.872;9.226;2022-07-10T16:20:45;25.40;51.70
360;DHT22;168;48.872;9.226;2022-07-10T16:23:13;25.40;51.60
360;DHT22;168;48.872;9.226;2022-07-10T16:25:41;25.40;51.10
360;DHT22;168;48.872;9.226;2022-07-10T16:28:27;24.80;52.20
360;DHT22;168;48.872;9.226;2022-07-10T16:30:55;24.30;53.00
360;DHT22;168;48.872;9.226;2022-07-10T16:33:23;23.90;54.40
360;DHT22;168;48.872;9.226;2022-07-10T16:35:51;23.90;54.00
360;DHT22;168;48.872;9.226;2022-07-10T16:38:18;23.70;54.50
360;DHT22;168;48.872;9.226;2022-07-10T16:40:47;23.20;54.90
360;DHT22;168;48.872;9.226;2022-07-10T16:43:19;23.30;55.20
360;DHT22;168;48.872;9.226;2022-07-10T16:45:48;23.20;55.70
360;DHT22;168;48.872;9.226;2022-07-10T16:48:19;23.20;55.30
360;DHT22;168;48.872;9.226;2022-07-10T16:50:49;23.70;54.50
360;DHT22;168;48.872;9.226;2022-07-10T16:53:17;24.30;54.20
360;DHT22;168;48.872;9.226;2022-07-10T16:55:45;24.80;53.60
360;DHT22;168;48.872;9.226;2022-07-10T16:58:13;25.00;52.80
360;DHT22;168;48.872;9.226;2022-07-10T17:00:40;25.00;53.40
360;DHT22;168;48.872;9.226;2022-07-10T17:03:10;25.10;53.90
360;DHT22;168;48.872;9.226;2022-07-10T17:05:37;25.30;52.90
360;DHT22;168;48.872;9.226;2022-07-10T17:08:05;25.20;52.80
360;DHT22;168;48.872;9.226;2022-07-10T17:10:35;25.30;52.80
360;DHT22;168;48.872;9.226;2022-07-10T17:13:03;25.20;52.50
360;DHT22;168;48.872;9.226;2022-07-10T17:15:31;25.20;52.80